N755HF PAHO-PAEM

Flight info

Callsign N755HF
Flight time 1h 52m
Altitude 22000
Route HOM TUCKS AKGAS Q10 ENM
Aircraft PC12/L-SDFGRWY/S

Departure

Time 2026-05-05 19:10
Airport Homer Airport (PAHO)

Arrival

Time 2026-05-05 21:02
Airport Emmonak Airport (PAEM)
Time Latitude Longitude Altitude Speed Heading
2026-05-05 18:59 59.64095 -151.48437 88 ft 0 kts 146°
2026-05-05 19:06 59.64098 -151.48399 88 ft 7 kts 10°
2026-05-05 19:06 59.64169 -151.48480 88 ft 16 kts 325°
2026-05-05 19:06 59.64271 -151.48474 86 ft 21 kts 56°
2026-05-05 19:07 59.64368 -151.48209 88 ft 27 kts 53°
2026-05-05 19:07 59.64484 -151.47882 90 ft 31 kts 56°
2026-05-05 19:07 59.64616 -151.47513 87 ft 35 kts 53°
2026-05-05 19:07 59.64757 -151.47112 89 ft 36 kts 54°
2026-05-05 19:08 59.64896 -151.46718 88 ft 35 kts 53°
2026-05-05 19:08 59.65016 -151.46355 87 ft 20 kts 65°
2026-05-05 19:08 59.65066 -151.46241 88 ft 10 kts 290°
2026-05-05 19:08 59.65049 -151.46284 88 ft 0 kts 233°
2026-05-05 19:09 59.64999 -151.46425 89 ft 35 kts 234°
2026-05-05 19:09 59.64766 -151.47082 89 ft 79 kts 234°
2026-05-05 19:09 59.64424 -151.48070 246 ft 91 kts 236°
2026-05-05 19:10 59.64092 -151.49161 560 ft 94 kts 239°
2026-05-05 19:10 59.63716 -151.50262 863 ft 100 kts 236°
2026-05-05 19:10 59.63262 -151.51505 1057 ft 122 kts 236°
2026-05-05 19:10 59.62584 -151.52323 1524 ft 122 kts 172°
2026-05-05 19:11 59.62006 -151.51334 1944 ft 116 kts 92°
2026-05-05 19:11 59.62308 -151.49914 2358 ft 115 kts 52°
2026-05-05 19:11 59.62915 -151.48957 2823 ft 115 kts 24°
2026-05-05 19:11 59.63684 -151.48516 3323 ft 116 kts 10°
2026-05-05 19:12 59.64486 -151.48303 3828 ft 117 kts
2026-05-05 19:12 59.65319 -151.48076 4250 ft 130 kts 10°
2026-05-05 19:12 59.66240 -151.47748 4760 ft 135 kts 13°
2026-05-05 19:12 59.67173 -151.47443 5298 ft 137 kts 12°
2026-05-05 19:13 59.68110 -151.46990 5814 ft 140 kts 17°
2026-05-05 19:13 59.69065 -151.46531 6338 ft 143 kts 17°
2026-05-05 19:13 59.70035 -151.46084 6866 ft 144 kts 16°
2026-05-05 19:13 59.71027 -151.46116 7392 ft 148 kts 339°
2026-05-05 19:14 59.71844 -151.47372 7884 ft 151 kts 317°
2026-05-05 19:14 59.72594 -151.48832 8427 ft 151 kts 317°
2026-05-05 19:14 59.73347 -151.50276 8972 ft 150 kts 318°
2026-05-05 19:14 59.74099 -151.51712 9542 ft 150 kts 317°
2026-05-05 19:15 59.74852 -151.53153 10035 ft 151 kts 318°
2026-05-05 19:15 59.75611 -151.54606 10503 ft 153 kts 318°
2026-05-05 19:15 59.76119 -151.55579 10814 ft 154 kts 318°
2026-05-05 19:15 59.76878 -151.57035 11287 ft 155 kts 318°
2026-05-05 19:16 59.77657 -151.58533 11777 ft 157 kts 319°
2026-05-05 19:16 59.78445 -151.60047 12270 ft 158 kts 319°
2026-05-05 19:16 59.79241 -151.61577 12756 ft 160 kts 319°
2026-05-05 19:16 59.80046 -151.63126 13247 ft 162 kts 320°
2026-05-05 19:17 59.80857 -151.64688 13716 ft 163 kts 320°
2026-05-05 19:17 59.81674 -151.66266 14162 ft 164 kts 318°
2026-05-05 19:17 59.82494 -151.67849 14626 ft 165 kts 318°
2026-05-05 19:17 59.83318 -151.69438 15075 ft 166 kts 317°
2026-05-05 19:18 59.84144 -151.71037 15542 ft 166 kts 317°
2026-05-05 19:18 59.84974 -151.72642 16008 ft 167 kts 317°
2026-05-05 19:18 59.85807 -151.74254 16474 ft 168 kts 316°
2026-05-05 19:18 59.86643 -151.75873 16941 ft 169 kts 316°
2026-05-05 19:19 59.87486 -151.77508 17424 ft 169 kts 315°
2026-05-05 19:19 59.88331 -151.79147 17906 ft 170 kts 315°
2026-05-05 19:19 59.89181 -151.80797 18333 ft 171 kts 315°
2026-05-05 19:19 59.90020 -151.82426 18740 ft 171 kts 315°
2026-05-05 19:20 59.90871 -151.84082 19157 ft 171 kts 315°
2026-05-05 19:20 59.91736 -151.85765 19585 ft 172 kts 315°
2026-05-05 19:20 59.92591 -151.87430 20004 ft 172 kts 315°
2026-05-05 19:20 59.93436 -151.89077 20421 ft 172 kts 316°
2026-05-05 19:21 59.94292 -151.90746 20844 ft 173 kts 316°
2026-05-05 19:21 59.95151 -151.92422 21265 ft 173 kts 316°
2026-05-05 19:21 59.96016 -151.94113 21681 ft 175 kts 316°
2026-05-05 19:21 59.96887 -151.95815 22087 ft 176 kts 316°
2026-05-05 19:22 59.97764 -151.97531 22472 ft 178 kts 316°
2026-05-05 19:22 59.98673 -151.99308 22563 ft 194 kts 316°
2026-05-05 19:22 59.99694 -152.01300 22350 ft 219 kts 316°
2026-05-05 19:22 60.00842 -152.03548 22132 ft 238 kts 316°
2026-05-05 19:23 60.02061 -152.05946 21921 ft 252 kts 315°
2026-05-05 19:23 60.03217 -152.08639 21719 ft 258 kts 301°
2026-05-05 19:23 60.04395 -152.11307 21714 ft 258 kts 320°
2026-05-05 19:23 60.05811 -152.13524 21712 ft 259 kts 321°
2026-05-05 19:24 60.07168 -152.15903 21707 ft 260 kts 316°
2026-05-05 19:24 60.08441 -152.18478 21720 ft 261 kts 314°
2026-05-05 19:24 60.09707 -152.21072 21723 ft 261 kts 315°
2026-05-05 19:24 60.10999 -152.23628 21723 ft 261 kts 315°
2026-05-05 19:25 60.12297 -152.26174 21725 ft 261 kts 315°
2026-05-05 19:25 60.13589 -152.28733 21714 ft 261 kts 315°
2026-05-05 19:25 60.14875 -152.31294 21724 ft 261 kts 315°
2026-05-05 19:25 60.16163 -152.33858 21725 ft 261 kts 315°
2026-05-05 19:26 60.17452 -152.36424 21727 ft 261 kts 315°
2026-05-05 19:26 60.18743 -152.38997 21725 ft 261 kts 315°
2026-05-05 19:26 60.20033 -152.41571 21722 ft 261 kts 315°
2026-05-05 19:26 60.21322 -152.44147 21726 ft 261 kts 315°
2026-05-05 19:27 60.22566 -152.46802 21730 ft 260 kts 308°
2026-05-05 19:27 60.23643 -152.49729 21733 ft 260 kts 307°
2026-05-05 19:27 60.24716 -152.52662 21734 ft 261 kts 307°
2026-05-05 19:27 60.25799 -152.55597 21728 ft 261 kts 307°
2026-05-05 19:28 60.26882 -152.58533 21735 ft 262 kts 307°
2026-05-05 19:28 60.27966 -152.61487 21733 ft 262 kts 307°
2026-05-05 19:28 60.29052 -152.64446 21739 ft 262 kts 307°
2026-05-05 19:28 60.30134 -152.67401 21730 ft 262 kts 307°
2026-05-05 19:29 60.31219 -152.70365 21741 ft 263 kts 307°
2026-05-05 19:29 60.32305 -152.73336 21729 ft 263 kts 307°
2026-05-05 19:29 60.33388 -152.76303 21741 ft 263 kts 307°
2026-05-05 19:29 60.34457 -152.79235 21742 ft 262 kts 307°
2026-05-05 19:30 60.35540 -152.82211 21742 ft 263 kts 307°
2026-05-05 19:30 60.36623 -152.85189 21736 ft 263 kts 307°
2026-05-05 19:30 60.37707 -152.88174 21736 ft 263 kts 307°
2026-05-05 19:30 60.38788 -152.91153 21737 ft 263 kts 307°
2026-05-05 19:31 60.39869 -152.94137 21742 ft 263 kts 306°
2026-05-05 19:31 60.40950 -152.97125 21746 ft 263 kts 306°
2026-05-05 19:31 60.42030 -153.00116 21746 ft 263 kts 306°
2026-05-05 19:31 60.43110 -153.03109 21743 ft 264 kts 306°
2026-05-05 19:32 60.44193 -153.06113 21748 ft 264 kts 306°
2026-05-05 19:32 60.45274 -153.09118 21746 ft 263 kts 306°
2026-05-05 19:32 60.46354 -153.12122 21750 ft 263 kts 306°
2026-05-05 19:32 60.47431 -153.15123 21747 ft 263 kts 306°
2026-05-05 19:33 60.48508 -153.18127 21748 ft 263 kts 306°
2026-05-05 19:33 60.49585 -153.21135 21748 ft 263 kts 306°
2026-05-05 19:33 60.50660 -153.24141 21740 ft 263 kts 306°
2026-05-05 19:33 60.51738 -153.27159 21744 ft 264 kts 306°
2026-05-05 19:34 60.52813 -153.30172 21745 ft 264 kts 306°
2026-05-05 19:34 60.53890 -153.33196 21744 ft 264 kts 306°
2026-05-05 19:34 60.54964 -153.36214 21741 ft 264 kts 306°
2026-05-05 19:35 60.57106 -153.42250 21740 ft 263 kts 306°
2026-05-05 19:35 60.58165 -153.45236 21741 ft 263 kts 306°
2026-05-05 19:35 60.59236 -153.48263 21738 ft 263 kts 306°
2026-05-05 19:35 60.60303 -153.51284 21732 ft 263 kts 306°
2026-05-05 19:36 60.61370 -153.54306 21730 ft 263 kts 306°
2026-05-05 19:36 60.62436 -153.57330 21736 ft 263 kts 306°
2026-05-05 19:36 60.63505 -153.60365 21734 ft 263 kts 306°
2026-05-05 19:36 60.64571 -153.63396 21733 ft 263 kts 306°
2026-05-05 19:37 60.65634 -153.66425 21732 ft 263 kts 306°
2026-05-05 19:37 60.66698 -153.69459 21734 ft 263 kts 306°
2026-05-05 19:37 60.67765 -153.72505 21728 ft 264 kts 306°
2026-05-05 19:37 60.68829 -153.75548 21734 ft 263 kts 306°
2026-05-05 19:38 60.69891 -153.78587 21733 ft 263 kts 306°
2026-05-05 19:38 60.70954 -153.81633 21730 ft 263 kts 306°
2026-05-05 19:38 60.72015 -153.84679 21731 ft 264 kts 306°
2026-05-05 19:38 60.73079 -153.87736 21723 ft 264 kts 306°
2026-05-05 19:39 60.74142 -153.90797 21731 ft 264 kts 306°
2026-05-05 19:39 60.75205 -153.93860 21731 ft 264 kts 306°
2026-05-05 19:39 60.76268 -153.96927 21718 ft 264 kts 305°
2026-05-05 19:39 60.77332 -154.00003 21730 ft 265 kts 305°
2026-05-05 19:40 60.78396 -154.03080 21733 ft 265 kts 305°
2026-05-05 19:40 60.79458 -154.06157 21732 ft 264 kts 305°
2026-05-05 19:40 60.80517 -154.09229 21731 ft 264 kts 305°
2026-05-05 19:40 60.81577 -154.12307 21729 ft 264 kts 305°
2026-05-05 19:41 60.82621 -154.15345 21731 ft 264 kts 305°
2026-05-05 19:41 60.83679 -154.18425 21732 ft 265 kts 305°
2026-05-05 19:41 60.84737 -154.21511 21731 ft 265 kts 305°
2026-05-05 19:41 60.85798 -154.24609 21728 ft 265 kts 305°
2026-05-05 19:42 60.86857 -154.27707 21730 ft 265 kts 305°
2026-05-05 19:42 60.87918 -154.30814 21723 ft 266 kts 305°
2026-05-05 19:42 60.88982 -154.33930 21731 ft 267 kts 305°
2026-05-05 19:42 60.90044 -154.37048 21729 ft 267 kts 304°
2026-05-05 19:43 60.91108 -154.40176 21719 ft 267 kts 304°
2026-05-05 19:43 60.92172 -154.43308 21733 ft 267 kts 304°
2026-05-05 19:43 60.93236 -154.46443 21733 ft 267 kts 304°
2026-05-05 19:43 60.94298 -154.49578 21735 ft 267 kts 304°
2026-05-05 19:44 60.95359 -154.52714 21729 ft 267 kts 304°
2026-05-05 19:44 60.96421 -154.55859 21727 ft 267 kts 304°
2026-05-05 19:44 60.97482 -154.59001 21733 ft 267 kts 304°
2026-05-05 19:44 60.98543 -154.62150 21736 ft 268 kts 304°
2026-05-05 19:45 60.99603 -154.65302 21730 ft 268 kts 304°
2026-05-05 19:45 61.00637 -154.68477 21731 ft 266 kts 298°
2026-05-05 19:45 61.01215 -154.72030 21742 ft 265 kts 282°
2026-05-05 19:45 61.01575 -154.75761 21739 ft 265 kts 281°
2026-05-05 19:46 61.01929 -154.79507 21748 ft 266 kts 281°
2026-05-05 19:46 61.02293 -154.83240 21740 ft 266 kts 281°
2026-05-05 19:46 61.02661 -154.86978 21742 ft 266 kts 281°
2026-05-05 19:46 61.03026 -154.90729 21748 ft 266 kts 281°
2026-05-05 19:47 61.03387 -154.94473 21747 ft 266 kts 281°
2026-05-05 19:47 61.03748 -154.98218 21741 ft 266 kts 281°
2026-05-05 19:47 61.04108 -155.01966 21738 ft 266 kts 281°
2026-05-05 19:47 61.04467 -155.05712 21748 ft 267 kts 281°
2026-05-05 19:48 61.04826 -155.09468 21741 ft 267 kts 280°
2026-05-05 19:48 61.05185 -155.13234 21744 ft 267 kts 281°
2026-05-05 19:48 61.05542 -155.16995 21737 ft 267 kts 280°
2026-05-05 19:48 61.05898 -155.20757 21742 ft 267 kts 281°
2026-05-05 19:49 61.06253 -155.24519 21733 ft 267 kts 280°
2026-05-05 19:49 61.06488 -155.27015 21733 ft 267 kts 280°
2026-05-05 19:49 61.06961 -155.32058 21738 ft 267 kts 280°
2026-05-05 19:49 61.07313 -155.35827 21724 ft 267 kts 280°
2026-05-05 19:50 61.07664 -155.39594 21739 ft 267 kts 280°
2026-05-05 19:50 61.08014 -155.43371 21739 ft 267 kts 279°
2026-05-05 19:50 61.08363 -155.47145 21737 ft 267 kts 280°
2026-05-05 19:50 61.08712 -155.50923 21738 ft 268 kts 280°
2026-05-05 19:51 61.09058 -155.54698 21739 ft 268 kts 279°
2026-05-05 19:51 61.09399 -155.58423 21740 ft 268 kts 280°
2026-05-05 19:51 61.09744 -155.62201 21733 ft 268 kts 279°
2026-05-05 19:51 61.10216 -155.65922 21732 ft 267 kts 285°
2026-05-05 19:52 61.10757 -155.69605 21732 ft 267 kts 285°
2026-05-05 19:52 61.11296 -155.73297 21736 ft 268 kts 285°
2026-05-05 19:52 61.11834 -155.76980 21730 ft 268 kts 285°
2026-05-05 19:52 61.12373 -155.80675 21738 ft 268 kts 284°
2026-05-05 19:53 61.12910 -155.84367 21743 ft 268 kts 285°
2026-05-05 19:53 61.13444 -155.88058 21743 ft 268 kts 285°
2026-05-05 19:53 61.13978 -155.91755 21750 ft 268 kts 285°
2026-05-05 19:53 61.14512 -155.95457 21742 ft 268 kts 285°
2026-05-05 19:54 61.15045 -155.99156 21753 ft 268 kts 284°
2026-05-05 19:54 61.15576 -156.02853 21752 ft 268 kts 285°
2026-05-05 19:54 61.16108 -156.06570 21762 ft 269 kts 284°
2026-05-05 19:54 61.16637 -156.10276 21761 ft 269 kts 284°
2026-05-05 19:55 61.17168 -156.13993 21766 ft 268 kts 284°
2026-05-05 19:55 61.17689 -156.17659 21768 ft 269 kts 285°
2026-05-05 19:55 61.18216 -156.21372 21775 ft 269 kts 285°
2026-05-05 19:55 61.18724 -156.24966 21773 ft 269 kts 284°
2026-05-05 19:56 61.19249 -156.28686 21788 ft 269 kts 284°
2026-05-05 19:56 61.19776 -156.32408 21785 ft 269 kts 283°
2026-05-05 19:56 61.20300 -156.36135 21781 ft 269 kts 284°
2026-05-05 19:56 61.20824 -156.39858 21780 ft 269 kts 284°
2026-05-05 19:57 61.21346 -156.43590 21784 ft 270 kts 283°
2026-05-05 19:57 61.21692 -156.46073 21786 ft 270 kts 284°
2026-05-05 19:57 61.22390 -156.51074 21786 ft 270 kts 283°
2026-05-05 19:57 61.22912 -156.54823 21785 ft 270 kts 283°
2026-05-05 19:58 61.23431 -156.58573 21791 ft 271 kts 283°
2026-05-05 19:58 61.23949 -156.62325 21787 ft 271 kts 283°
2026-05-05 19:58 61.24470 -156.66093 21784 ft 271 kts 283°
2026-05-05 19:58 61.24989 -156.69857 21792 ft 271 kts 283°
2026-05-05 19:59 61.25507 -156.73627 21793 ft 271 kts 283°
2026-05-05 19:59 61.26024 -156.77398 21792 ft 271 kts 283°
2026-05-05 19:59 61.26541 -156.81178 21793 ft 272 kts 283°
2026-05-05 19:59 61.27058 -156.84961 21793 ft 273 kts 282°
2026-05-05 20:00 61.27568 -156.88707 21801 ft 273 kts 283°
2026-05-05 20:00 61.28084 -156.92506 21792 ft 273 kts 283°
2026-05-05 20:00 61.28600 -156.96308 21795 ft 273 kts 282°
2026-05-05 20:00 61.29112 -157.00104 21793 ft 273 kts 283°
2026-05-05 20:01 61.29625 -157.03907 21796 ft 273 kts 283°
2026-05-05 20:01 61.30136 -157.07706 21803 ft 273 kts 283°
2026-05-05 20:01 61.30647 -157.11510 21800 ft 273 kts 283°
2026-05-05 20:01 61.31158 -157.15323 21800 ft 273 kts 282°
2026-05-05 20:02 61.31666 -157.19127 21806 ft 273 kts 283°
2026-05-05 20:02 61.32002 -157.21653 21802 ft 273 kts 282°
2026-05-05 20:02 61.32509 -157.25460 21801 ft 273 kts 282°
2026-05-05 20:02 61.33013 -157.29258 21807 ft 272 kts 281°
2026-05-05 20:03 61.33517 -157.33059 21801 ft 272 kts 282°
2026-05-05 20:03 61.34018 -157.36858 21802 ft 272 kts 282°
2026-05-05 20:03 61.34519 -157.40660 21803 ft 272 kts 282°
2026-05-05 20:03 61.35018 -157.44459 21802 ft 272 kts 281°
2026-05-05 20:04 61.35515 -157.48247 21803 ft 271 kts 283°
2026-05-05 20:04 61.36011 -157.52037 21803 ft 271 kts 282°
2026-05-05 20:04 61.36505 -157.55830 21807 ft 271 kts 282°
2026-05-05 20:04 61.36999 -157.59622 21811 ft 271 kts 281°
2026-05-05 20:05 61.37491 -157.63411 21812 ft 271 kts 281°
2026-05-05 20:05 61.37983 -157.67208 21814 ft 271 kts 281°
2026-05-05 20:05 61.38474 -157.71006 21809 ft 271 kts 281°
2026-05-05 20:05 61.38955 -157.74748 21818 ft 271 kts 281°
2026-05-05 20:06 61.39443 -157.78545 21824 ft 271 kts 281°
2026-05-05 20:06 61.39931 -157.82344 21825 ft 271 kts 281°
2026-05-05 20:06 61.40416 -157.86145 21823 ft 271 kts 282°
2026-05-05 20:06 61.40902 -157.89951 21820 ft 271 kts 282°
2026-05-05 20:07 61.41387 -157.93757 21833 ft 272 kts 281°
2026-05-05 20:07 61.41871 -157.97573 21828 ft 272 kts 282°
2026-05-05 20:07 61.42353 -158.01381 21830 ft 271 kts 282°
2026-05-05 20:07 61.42836 -158.05198 21836 ft 272 kts 281°
2026-05-05 20:08 61.43318 -158.09028 21827 ft 272 kts 282°
2026-05-05 20:08 61.43799 -158.12853 21835 ft 272 kts 282°
2026-05-05 20:08 61.44279 -158.16681 21841 ft 272 kts 281°
2026-05-05 20:08 61.44758 -158.20509 21838 ft 272 kts 281°
2026-05-05 20:09 61.45235 -158.24340 21841 ft 273 kts 282°
2026-05-05 20:09 61.45713 -158.28176 21843 ft 273 kts 281°
2026-05-05 20:09 61.46189 -158.32012 21846 ft 272 kts 282°
2026-05-05 20:09 61.46664 -158.35848 21843 ft 272 kts 281°
2026-05-05 20:10 61.47137 -158.39682 21850 ft 272 kts 281°
2026-05-05 20:10 61.47609 -158.43519 21852 ft 272 kts 282°
2026-05-05 20:10 61.48081 -158.47364 21849 ft 273 kts 281°
2026-05-05 20:10 61.48551 -158.51198 21852 ft 273 kts 281°
2026-05-05 20:11 61.49022 -158.55051 21853 ft 273 kts 281°
2026-05-05 20:11 61.49491 -158.58903 21855 ft 273 kts 281°
2026-05-05 20:11 61.49960 -158.62760 21856 ft 274 kts 281°
2026-05-05 20:11 61.50428 -158.66621 21859 ft 274 kts 281°
2026-05-05 20:12 61.50898 -158.70503 21860 ft 275 kts 281°
2026-05-05 20:12 61.51367 -158.74397 21859 ft 276 kts 281°
2026-05-05 20:12 61.51836 -158.78292 21859 ft 276 kts 281°
2026-05-05 20:12 61.52304 -158.82194 21858 ft 275 kts 281°
2026-05-05 20:13 61.52768 -158.86075 21863 ft 275 kts 281°
2026-05-05 20:13 61.53230 -158.89950 21868 ft 274 kts 281°
2026-05-05 20:13 61.53692 -158.93831 21871 ft 274 kts 281°
2026-05-05 20:13 61.54145 -158.97648 21878 ft 273 kts 281°
2026-05-05 20:14 61.54608 -159.01565 21879 ft 273 kts 281°
2026-05-05 20:14 61.55064 -159.05429 21881 ft 273 kts 281°
2026-05-05 20:14 61.55515 -159.09253 21882 ft 273 kts 281°
2026-05-05 20:14 61.55969 -159.13124 21889 ft 273 kts 281°
2026-05-05 20:15 61.56421 -159.16985 21891 ft 273 kts 281°
2026-05-05 20:15 61.56873 -159.20859 21896 ft 273 kts 281°
2026-05-05 20:15 61.57324 -159.24733 21892 ft 273 kts 281°
2026-05-05 20:15 61.57773 -159.28598 21894 ft 273 kts 281°
2026-05-05 20:16 61.58223 -159.32481 21894 ft 273 kts 281°
2026-05-05 20:16 61.58670 -159.36349 21896 ft 273 kts 281°
2026-05-05 20:16 61.59116 -159.40220 21898 ft 273 kts 281°
2026-05-05 20:16 61.59560 -159.44085 21896 ft 272 kts 281°
2026-05-05 20:17 61.60004 -159.47971 21897 ft 273 kts 281°
2026-05-05 20:17 61.60446 -159.51838 21897 ft 273 kts 281°
2026-05-05 20:17 61.60888 -159.55710 21896 ft 272 kts 281°
2026-05-05 20:17 61.61322 -159.59530 21897 ft 272 kts 281°
2026-05-05 20:18 61.61819 -159.63360 21890 ft 273 kts 289°
2026-05-05 20:18 61.62707 -159.66897 21889 ft 274 kts 297°
2026-05-05 20:18 61.63656 -159.70371 21892 ft 274 kts 297°
2026-05-05 20:18 61.64599 -159.73852 21892 ft 274 kts 297°
2026-05-05 20:19 61.65530 -159.77352 21893 ft 274 kts 297°
2026-05-05 20:19 61.66458 -159.80857 21891 ft 274 kts 297°
2026-05-05 20:19 61.67390 -159.84363 21892 ft 274 kts 296°
2026-05-05 20:19 61.68319 -159.87861 21889 ft 274 kts 297°
2026-05-05 20:20 61.69246 -159.91367 21891 ft 274 kts 297°
2026-05-05 20:20 61.70172 -159.94869 21892 ft 274 kts 296°
2026-05-05 20:20 61.71097 -159.98373 21891 ft 273 kts 297°
2026-05-05 20:20 61.72021 -160.01880 21899 ft 273 kts 297°
2026-05-05 20:21 61.72942 -160.05381 21902 ft 273 kts 296°
2026-05-05 20:21 61.73861 -160.08879 21904 ft 272 kts 297°
2026-05-05 20:21 61.74777 -160.12377 21909 ft 272 kts 297°
2026-05-05 20:21 61.75679 -160.15818 21910 ft 271 kts 297°
2026-05-05 20:22 61.76601 -160.19344 21916 ft 270 kts 297°
2026-05-05 20:22 61.77495 -160.22769 21921 ft 270 kts 297°
2026-05-05 20:22 61.78410 -160.26281 21926 ft 269 kts 297°
2026-05-05 20:22 61.79311 -160.29745 21929 ft 269 kts 297°
2026-05-05 20:23 61.80210 -160.33208 21935 ft 268 kts 298°
2026-05-05 20:23 61.81095 -160.36616 21937 ft 268 kts 297°
2026-05-05 20:23 61.81988 -160.40063 21937 ft 267 kts 297°
2026-05-05 20:23 61.82878 -160.43507 21941 ft 267 kts 298°
2026-05-05 20:24 61.83767 -160.46949 21943 ft 266 kts 298°
2026-05-05 20:24 61.84654 -160.50391 21943 ft 266 kts 297°
2026-05-05 20:24 61.85538 -160.53824 21952 ft 265 kts 298°
2026-05-05 20:24 61.86419 -160.57253 21960 ft 265 kts 298°
2026-05-05 20:25 61.87300 -160.60684 21956 ft 265 kts 298°
2026-05-05 20:25 61.88178 -160.64111 21956 ft 264 kts 298°
2026-05-05 20:25 61.89052 -160.67528 21953 ft 264 kts 298°
2026-05-05 20:25 61.89926 -160.70951 21960 ft 263 kts 298°
2026-05-05 20:26 61.90796 -160.74361 21956 ft 263 kts 298°
2026-05-05 20:26 61.91666 -160.77777 21957 ft 263 kts 298°
2026-05-05 20:26 61.92531 -160.81182 21956 ft 262 kts 299°
2026-05-05 20:26 61.93393 -160.84579 21956 ft 261 kts 298°
2026-05-05 20:27 61.94254 -160.87977 21957 ft 261 kts 299°
2026-05-05 20:27 61.95110 -160.91359 21958 ft 260 kts 299°
2026-05-05 20:27 61.95966 -160.94747 21955 ft 260 kts 299°
2026-05-05 20:27 61.96819 -160.98127 21953 ft 260 kts 299°
2026-05-05 20:28 61.97672 -161.01514 21956 ft 260 kts 299°
2026-05-05 20:28 61.98524 -161.04897 21955 ft 259 kts 299°
2026-05-05 20:28 61.99365 -161.08247 21959 ft 259 kts 299°
2026-05-05 20:28 62.00213 -161.11632 21955 ft 259 kts 300°
2026-05-05 20:29 62.01057 -161.15004 21956 ft 258 kts 300°
2026-05-05 20:29 62.01901 -161.18378 21954 ft 258 kts 300°
2026-05-05 20:29 62.02744 -161.21752 21954 ft 258 kts 300°
2026-05-05 20:29 62.03586 -161.25131 21952 ft 258 kts 300°
2026-05-05 20:30 62.04427 -161.28509 21951 ft 258 kts 300°
2026-05-05 20:30 62.05265 -161.31883 21950 ft 258 kts 300°
2026-05-05 20:30 62.06102 -161.35258 21946 ft 257 kts 300°
2026-05-05 20:30 62.06937 -161.38629 21946 ft 257 kts 300°
2026-05-05 20:31 62.07774 -161.42011 21950 ft 257 kts 300°
2026-05-05 20:31 62.08608 -161.45393 21947 ft 257 kts 300°
2026-05-05 20:31 62.09439 -161.48762 21949 ft 257 kts 300°
2026-05-05 20:31 62.10273 -161.52147 21956 ft 257 kts 300°
2026-05-05 20:32 62.11102 -161.55519 21958 ft 257 kts 300°
2026-05-05 20:32 62.11931 -161.58898 21961 ft 257 kts 300°
2026-05-05 20:32 62.12759 -161.62275 21963 ft 256 kts 300°
2026-05-05 20:32 62.13584 -161.65649 21964 ft 256 kts 300°
2026-05-05 20:33 62.14409 -161.69025 21967 ft 256 kts 300°
2026-05-05 20:33 62.15232 -161.72399 21969 ft 256 kts 300°
2026-05-05 20:33 62.16054 -161.75773 21970 ft 256 kts 300°
2026-05-05 20:33 62.16862 -161.79096 21972 ft 255 kts 300°
2026-05-05 20:34 62.17679 -161.82462 21974 ft 255 kts 300°
2026-05-05 20:34 62.18496 -161.85832 21975 ft 254 kts 300°
2026-05-05 20:34 62.19310 -161.89193 21975 ft 254 kts 300°
2026-05-05 20:34 62.20122 -161.92553 21976 ft 254 kts 300°
2026-05-05 20:35 62.20932 -161.95912 21979 ft 253 kts 300°
2026-05-05 20:35 62.21740 -161.99263 21979 ft 253 kts 300°
2026-05-05 20:35 62.22546 -162.02612 21977 ft 253 kts 300°
2026-05-05 20:35 62.23354 -162.05975 21833 ft 257 kts 300°
2026-05-05 20:36 62.24191 -162.09454 21432 ft 268 kts 300°
2026-05-05 20:36 62.25038 -162.12989 21039 ft 262 kts 300°
2026-05-05 20:36 62.25855 -162.16412 20636 ft 255 kts 300°
2026-05-05 20:36 62.26654 -162.19759 20244 ft 250 kts 300°
2026-05-05 20:37 62.27584 -162.22831 19857 ft 243 kts 311°
2026-05-05 20:37 62.28256 -162.24716 19613 ft 242 kts 301°
2026-05-05 20:37 62.28940 -162.29325 19118 ft 241 kts 289°
2026-05-05 20:37 62.29425 -162.32775 18749 ft 241 kts 291°
2026-05-05 20:38 62.29949 -162.36188 18384 ft 241 kts 291°
2026-05-05 20:38 62.30474 -162.39610 17980 ft 240 kts 291°
2026-05-05 20:38 62.30980 -162.42982 17562 ft 240 kts 290°
2026-05-05 20:38 62.31488 -162.46394 17150 ft 239 kts 290°
2026-05-05 20:39 62.31996 -162.49800 16746 ft 239 kts 290°
2026-05-05 20:39 62.32503 -162.53196 16335 ft 238 kts 290°
2026-05-05 20:39 62.33008 -162.56583 15941 ft 238 kts 290°
2026-05-05 20:39 62.33510 -162.59963 15553 ft 237 kts 290°
2026-05-05 20:40 62.34010 -162.63333 15170 ft 236 kts 290°
2026-05-05 20:40 62.34507 -162.66693 14787 ft 235 kts 290°
2026-05-05 20:40 62.35003 -162.70046 14412 ft 234 kts 290°
2026-05-05 20:40 62.35494 -162.73379 14035 ft 233 kts 290°
2026-05-05 20:41 62.35984 -162.76704 13643 ft 232 kts 290°
2026-05-05 20:41 62.36464 -162.79974 13225 ft 227 kts 290°
2026-05-05 20:41 62.36934 -162.83181 12817 ft 222 kts 290°
2026-05-05 20:41 62.37395 -162.86331 12409 ft 219 kts 290°
2026-05-05 20:42 62.37850 -162.89445 12002 ft 216 kts 290°
2026-05-05 20:42 62.38297 -162.92517 11601 ft 214 kts 290°
2026-05-05 20:42 62.38741 -162.95566 11210 ft 212 kts 290°
2026-05-05 20:42 62.39173 -162.98542 10830 ft 210 kts 290°
2026-05-05 20:43 62.39609 -163.01542 10446 ft 210 kts 290°
2026-05-05 20:43 62.40042 -163.04537 10078 ft 209 kts 290°
2026-05-05 20:43 62.40473 -163.07525 9683 ft 208 kts 290°
2026-05-05 20:43 62.40901 -163.10493 9267 ft 207 kts 290°
2026-05-05 20:44 62.41327 -163.13459 8852 ft 207 kts 290°
2026-05-05 20:44 62.41754 -163.16423 8448 ft 207 kts 289°
2026-05-05 20:44 62.42178 -163.19381 8047 ft 206 kts 290°
2026-05-05 20:44 62.42599 -163.22329 7659 ft 205 kts 290°
2026-05-05 20:45 62.43440 -163.28212 6884 ft 205 kts 290°
2026-05-05 20:45 62.43859 -163.31153 6501 ft 205 kts 290°
2026-05-05 20:45 62.44278 -163.34102 6107 ft 205 kts 290°
2026-05-05 20:46 62.44695 -163.37047 5700 ft 205 kts 290°
2026-05-05 20:46 62.45111 -163.39982 5300 ft 204 kts 290°
2026-05-05 20:46 62.45524 -163.42898 4913 ft 203 kts 290°
2026-05-05 20:46 62.45934 -163.45806 4504 ft 201 kts 290°
2026-05-05 20:47 62.46340 -163.48683 4110 ft 198 kts 290°
2026-05-05 20:47 62.46733 -163.51484 3850 ft 184 kts 289°
2026-05-05 20:47 62.47067 -163.53882 3943 ft 151 kts 290°
2026-05-05 20:47 62.47354 -163.55939 3993 ft 142 kts 290°
2026-05-05 20:48 62.47644 -163.58004 3997 ft 145 kts 290°
2026-05-05 20:48 62.47961 -163.60245 4008 ft 167 kts 290°
2026-05-05 20:48 62.48315 -163.62757 4008 ft 182 kts 289°
2026-05-05 20:48 62.48693 -163.65460 4008 ft 193 kts 289°
2026-05-05 20:49 62.49079 -163.68237 4002 ft 198 kts 289°
2026-05-05 20:49 62.49482 -163.71140 3889 ft 203 kts 289°
2026-05-05 20:49 62.49891 -163.74093 3786 ft 207 kts 289°
2026-05-05 20:49 62.50310 -163.77095 3682 ft 210 kts 289°
2026-05-05 20:50 62.50841 -163.80003 3572 ft 207 kts 304°
2026-05-05 20:50 62.51389 -163.81735 3497 ft 207 kts 298°
2026-05-05 20:50 62.51866 -163.85742 3371 ft 208 kts 287°
2026-05-05 20:50 62.52292 -163.88746 3256 ft 209 kts 288°
2026-05-05 20:51 62.52692 -163.91779 3149 ft 209 kts 288°
2026-05-05 20:51 62.53082 -163.94810 3038 ft 208 kts 288°
2026-05-05 20:51 62.53472 -163.97809 2930 ft 207 kts 288°
2026-05-05 20:51 62.53730 -163.99789 2859 ft 206 kts 288°
2026-05-05 20:52 62.54119 -164.02778 2754 ft 206 kts 288°
2026-05-05 20:52 62.54504 -164.05758 2649 ft 205 kts 288°
2026-05-05 20:52 62.54889 -164.08727 2547 ft 204 kts 288°
2026-05-05 20:52 62.55270 -164.11681 2434 ft 204 kts 288°
2026-05-05 20:53 62.55651 -164.14633 2321 ft 203 kts 288°
2026-05-05 20:53 62.56027 -164.17567 2207 ft 200 kts 288°
2026-05-05 20:53 62.56396 -164.20434 2092 ft 195 kts 288°
2026-05-05 20:53 62.56756 -164.23241 1986 ft 191 kts 288°
2026-05-05 20:54 62.57106 -164.25993 1874 ft 188 kts 288°
2026-05-05 20:54 62.57452 -164.28701 1767 ft 185 kts 288°
2026-05-05 20:54 62.57787 -164.31368 1700 ft 180 kts 287°
2026-05-05 20:54 62.58090 -164.33946 1694 ft 171 kts 288°
2026-05-05 20:55 62.58415 -164.36364 1695 ft 163 kts 288°
2026-05-05 20:55 62.58710 -164.38630 1690 ft 153 kts 288°
2026-05-05 20:55 62.58985 -164.40786 1699 ft 145 kts 288°
2026-05-05 20:55 62.59250 -164.42883 1704 ft 145 kts 288°
2026-05-05 20:56 62.59532 -164.44997 1697 ft 146 kts 294°
2026-05-05 20:56 62.60177 -164.46516 1699 ft 135 kts 331°
2026-05-05 20:56 62.61093 -164.46926 1700 ft 137 kts 353°
2026-05-05 20:56 62.62030 -164.47028 1708 ft 134 kts 353°
2026-05-05 20:57 62.62929 -164.47134 1693 ft 125 kts 353°
2026-05-05 20:57 62.63794 -164.47243 1694 ft 126 kts 352°
2026-05-05 20:57 62.64675 -164.47353 1697 ft 128 kts 353°
2026-05-05 20:57 62.65565 -164.47462 1699 ft 128 kts 353°
2026-05-05 20:58 62.66435 -164.47564 1699 ft 124 kts 353°
2026-05-05 20:58 62.67277 -164.47669 1701 ft 117 kts 353°
2026-05-05 20:58 62.68065 -164.47764 1708 ft 110 kts 353°
2026-05-05 20:58 62.68825 -164.47858 1706 ft 108 kts 352°
2026-05-05 20:59 62.69570 -164.47952 1698 ft 107 kts 353°
2026-05-05 20:59 62.70341 -164.48051 1663 ft 118 kts 352°
2026-05-05 20:59 62.71217 -164.48162 1503 ft 133 kts 353°
2026-05-05 20:59 62.72176 -164.48277 1301 ft 142 kts 353°
2026-05-05 21:00 62.73157 -164.48392 1084 ft 133 kts 353°
2026-05-05 21:00 62.73997 -164.48486 869 ft 112 kts 352°
2026-05-05 21:00 62.74729 -164.48578 705 ft 96 kts 352°
2026-05-05 21:00 62.75348 -164.48656 566 ft 83 kts 352°
2026-05-05 21:01 62.75897 -164.48727 452 ft 76 kts 350°
2026-05-05 21:01 62.76420 -164.48802 369 ft 78 kts 351°
2026-05-05 21:01 62.76959 -164.48862 296 ft 75 kts 351°
2026-05-05 21:01 62.77495 -164.48931 146 ft 78 kts 351°
2026-05-05 21:02 62.78024 -164.49004 37 ft 74 kts 350°
2026-05-05 21:02 62.78464 -164.49074 20 ft 47 kts 354°
2026-05-05 21:02 62.78687 -164.49087 23 ft 21 kts 358°
2026-05-05 21:02 62.78724 -164.49099 25 ft 6 kts 217°
2026-05-05 21:03 62.78616 -164.49076 20 ft 26 kts 173°
2026-05-05 21:03 62.78386 -164.49043 19 ft 35 kts 175°
2026-05-05 21:03 62.78136 -164.49007 23 ft 25 kts 174°
2026-05-05 21:03 62.77985 -164.49109 21 ft 28 kts 218°
2026-05-05 21:04 62.77826 -164.49325 21 ft 26 kts 207°
2026-05-05 21:04 62.77651 -164.49338 21 ft 24 kts 180°
2026-05-05 21:04 62.77584 -164.49447 21 ft 9 kts 270°
2026-05-05 21:04 62.77594 -164.49468 21 ft 0 kts